sensor_id;sensor_type;location;lat;lon;timestamp;pressure;altitude;pressure_sealevel;temperature;humidity
55590;BME280;41452;42.780;23.116;2023-02-27T00:02:22;93505.97;;;11.34;79.60
55590;BME280;41452;42.780;23.116;2023-02-27T00:04:47;93505.44;;;11.32;79.67
55590;BME280;41452;42.780;23.116;2023-02-27T00:07:13;93506.19;;;11.28;79.76
55590;BME280;41452;42.780;23.116;2023-02-27T00:09:38;93462.94;;;10.98;80.30
55590;BME280;41452;42.780;23.116;2023-02-27T00:12:06;93504.88;;;11.25;80.50
55590;BME280;41452;42.780;23.116;2023-02-27T00:14:32;93508.78;;;11.17;80.70
55590;BME280;41452;42.780;23.116;2023-02-27T00:16:58;93502.22;;;11.20;81.03
55590;BME280;41452;42.780;23.116;2023-02-27T00:19:23;93517.69;;;11.16;81.63
55590;BME280;41452;42.780;23.116;2023-02-27T00:21:48;93514.75;;;11.08;81.42
55590;BME280;41452;42.780;23.116;2023-02-27T00:24:14;93520.50;;;11.04;82.34
55590;BME280;41452;42.780;23.116;2023-02-27T00:26:39;93534.63;;;10.93;82.97
55590;BME280;41452;42.780;23.116;2023-02-27T00:29:05;93525.69;;;10.94;83.37
55590;BME280;41452;42.780;23.116;2023-02-27T00:31:31;93485.72;;;10.55;83.88
55590;BME280;41452;42.780;23.116;2023-02-27T00:33:56;93533.06;;;10.97;84.59
55590;BME280;41452;42.780;23.116;2023-02-27T00:36:22;93518.38;;;10.96;83.99
55590;BME280;41452;42.780;23.116;2023-02-27T00:38:47;93510.19;;;10.93;84.92
55590;BME280;41452;42.780;23.116;2023-02-27T00:41:13;93510.94;;;10.88;84.72
55590;BME280;41452;42.780;23.116;2023-02-27T00:43:38;93502.53;;;10.86;85.54
55590;BME280;41452;42.780;23.116;2023-02-27T00:46:04;93473.75;;;10.69;85.86
55590;BME280;41452;42.780;23.116;2023-02-27T00:48:29;93503.81;;;10.83;85.75
55590;BME280;41452;42.780;23.116;2023-02-27T00:50:55;93504.38;;;10.86;86.71
55590;BME280;41452;42.780;23.116;2023-02-27T00:53:20;93478.69;;;10.60;86.85
55590;BME280;41452;42.780;23.116;2023-02-27T00:55:46;93499.31;;;10.79;87.13
55590;BME280;41452;42.780;23.116;2023-02-27T00:58:11;93460.69;;;10.42;87.36
55590;BME280;41452;42.780;23.116;2023-02-27T01:00:37;93504.31;;;10.80;86.97
55590;BME280;41452;42.780;23.116;2023-02-27T01:03:02;93506.94;;;10.80;87.33
55590;BME280;41452;42.780;23.116;2023-02-27T01:05:28;93507.19;;;10.79;87.47
55590;BME280;41452;42.780;23.116;2023-02-27T01:07:53;93499.31;;;10.79;87.78
55590;BME280;41452;42.780;23.116;2023-02-27T01:10:19;93497.75;;;10.83;87.28
55590;BME280;41452;42.780;23.116;2023-02-27T01:12:44;93502.81;;;10.90;87.33
55590;BME280;41452;42.780;23.116;2023-02-27T01:15:10;93500.94;;;10.85;87.05
55590;BME280;41452;42.780;23.116;2023-02-27T01:17:36;93499.84;;;10.81;87.65
55590;BME280;41452;42.780;23.116;2023-02-27T01:20:02;93495.69;;;10.85;86.80
55590;BME280;41452;42.780;23.116;2023-02-27T01:22:27;93468.25;;;10.71;86.88
55590;BME280;41452;42.780;23.116;2023-02-27T01:24:53;93504.66;;;10.89;86.62
55590;BME280;41452;42.780;23.116;2023-02-27T01:27:18;93462.44;;;10.63;86.14
55590;BME280;41452;42.780;23.116;2023-02-27T01:29:43;93515.97;;;10.95;85.91
55590;BME280;41452;42.780;23.116;2023-02-27T01:32:09;93526.25;;;10.96;85.74
55590;BME280;41452;42.780;23.116;2023-02-27T01:34:34;93524.94;;;10.99;85.24
55590;BME280;41452;42.780;23.116;2023-02-27T01:37:00;93523.09;;;10.99;85.01
55590;BME280;41452;42.780;23.116;2023-02-27T01:39:25;93530.47;;;11.02;84.38
55590;BME280;41452;42.780;23.116;2023-02-27T01:41:51;93528.63;;;11.03;84.22
55590;BME280;41452;42.780;23.116;2023-02-27T01:44:17;93508.81;;;10.85;84.45
55590;BME280;41452;42.780;23.116;2023-02-27T01:46:43;93541.53;;;11.04;84.04
55590;BME280;41452;42.780;23.116;2023-02-27T01:49:11;93543.06;;;11.00;84.28
55590;BME280;41452;42.780;23.116;2023-02-27T01:51:45;93562.09;;;11.13;84.44
55590;BME280;41452;42.780;23.116;2023-02-27T01:54:16;93585.72;;;11.13;86.80
55590;BME280;41452;42.780;23.116;2023-02-27T01:56:42;93605.97;;;11.12;90.54
55590;BME280;41452;42.780;23.116;2023-02-27T03:10:23;93811.59;;;5.49;99.20
55590;BME280;41452;42.780;23.116;2023-02-27T03:12:55;93834.84;;;5.76;98.65
55590;BME280;41452;42.780;23.116;2023-02-27T03:15:26;93799.31;;;5.56;99.69
55590;BME280;41452;42.780;23.116;2023-02-27T03:18:07;93843.31;;;5.96;99.11
55590;BME280;41452;42.780;23.116;2023-02-27T03:20:38;93824.91;;;5.84;98.43
55590;BME280;41452;42.780;23.116;2023-02-27T03:23:10;93858.22;;;6.07;97.68
55590;BME280;41452;42.780;23.116;2023-02-27T03:25:38;93862.88;;;6.05;98.14
55590;BME280;41452;42.780;23.116;2023-02-27T03:28:08;93880.63;;;5.90;97.50
55590;BME280;41452;42.780;23.116;2023-02-27T03:30:39;93887.44;;;5.59;98.41
55590;BME280;41452;42.780;23.116;2023-02-27T03:35:52;93880.81;;;5.31;100.00
55590;BME280;41452;42.780;23.116;2023-02-27T03:38:35;93885.88;;;5.13;100.00
55590;BME280;41452;42.780;23.116;2023-02-27T03:41:35;93899.16;;;5.05;100.00
55590;BME280;41452;42.780;23.116;2023-02-27T03:46:49;93925.00;;;4.93;100.00
55590;BME280;41452;42.780;23.116;2023-02-27T03:49:15;93861.50;;;4.42;100.00
55590;BME280;41452;42.780;23.116;2023-02-27T03:51:40;93933.28;;;4.70;100.00
55590;BME280;41452;42.780;23.116;2023-02-27T03:54:13;93939.69;;;4.47;100.00
55590;BME280;41452;42.780;23.116;2023-02-27T03:56:50;93860.00;;;3.88;100.00
55590;BME280;41452;42.780;23.116;2023-02-27T03:59:20;93945.53;;;4.43;100.00
55590;BME280;41452;42.780;23.116;2023-02-27T04:01:47;93954.50;;;4.40;100.00
55590;BME280;41452;42.780;23.116;2023-02-27T04:04:14;93955.34;;;4.41;100.00
55590;BME280;41452;42.780;23.116;2023-02-27T04:07:08;93960.50;;;4.47;100.00
55590;BME280;41452;42.780;23.116;2023-02-27T04:21:46;94008.53;;;4.45;100.00
55590;BME280;41452;42.780;23.116;2023-02-27T04:35:52;94036.94;;;4.46;100.00
55590;BME280;41452;42.780;23.116;2023-02-27T04:40:52;94045.75;;;4.59;100.00
55590;BME280;41452;42.780;23.116;2023-02-27T04:43:21;94048.94;;;4.61;100.00
55590;BME280;41452;42.780;23.116;2023-02-27T04:45:49;94050.31;;;4.56;100.00
55590;BME280;41452;42.780;23.116;2023-02-27T04:48:21;94063.31;;;4.56;100.00
55590;BME280;41452;42.780;23.116;2023-02-27T04:50:54;94074.53;;;4.57;100.00
55590;BME280;41452;42.780;23.116;2023-02-27T04:53:35;94058.31;;;4.42;100.00
55590;BME280;41452;42.780;23.116;2023-02-27T04:56:05;94075.72;;;4.54;100.00
55590;BME280;41452;42.780;23.116;2023-02-27T04:58:49;94073.53;;;4.51;100.00
55590;BME280;41452;42.780;23.116;2023-02-27T05:01:28;94070.94;;;4.51;100.00
55590;BME280;41452;42.780;23.116;2023-02-27T05:03:56;94084.53;;;4.53;100.00
55590;BME280;41452;42.780;23.116;2023-02-27T05:06:26;94073.91;;;4.42;100.00
55590;BME280;41452;42.780;23.116;2023-02-27T05:09:08;94100.56;;;4.57;100.00
55590;BME280;41452;42.780;23.116;2023-02-27T05:11:52;94088.72;;;4.54;100.00
55590;BME280;41452;42.780;23.116;2023-02-27T05:14:30;94094.75;;;4.55;100.00
55590;BME280;41452;42.780;23.116;2023-02-27T05:17:08;94110.75;;;4.59;100.00
55590;BME280;41452;42.780;23.116;2023-02-27T05:19:37;94120.13;;;4.53;100.00
55590;BME280;41452;42.780;23.116;2023-02-27T05:27:38;94116.91;;;4.31;100.00
55590;BME280;41452;42.780;23.116;2023-02-27T05:30:37;94122.50;;;4.21;100.00
55590;BME280;41452;42.780;23.116;2023-02-27T05:36:02;94137.81;;;4.03;100.00
55590;BME280;41452;42.780;23.116;2023-02-27T05:38:52;94134.81;;;3.99;100.00
55590;BME280;41452;42.780;23.116;2023-02-27T05:41:27;94100.31;;;3.70;100.00
55590;BME280;41452;42.780;23.116;2023-02-27T05:44:02;94145.97;;;3.93;100.00
55590;BME280;41452;42.780;23.116;2023-02-27T05:46:32;94157.38;;;3.92;100.00
55590;BME280;41452;42.780;23.116;2023-02-27T05:49:02;94155.75;;;3.84;100.00
55590;BME280;41452;42.780;23.116;2023-02-27T05:51:32;94157.13;;;3.87;100.00
55590;BME280;41452;42.780;23.116;2023-02-27T05:54:04;94149.72;;;3.84;100.00
55590;BME280;41452;42.780;23.116;2023-02-27T05:56:32;94151.94;;;3.87;100.00
55590;BME280;41452;42.780;23.116;2023-02-27T05:59:13;94133.31;;;3.76;100.00
55590;BME280;41452;42.780;23.116;2023-02-27T06:01:41;94148.53;;;3.86;100.00
55590;BME280;41452;42.780;23.116;2023-02-27T06:04:07;94131.91;;;3.74;100.00
55590;BME280;41452;42.780;23.116;2023-02-27T06:06:34;94147.13;;;3.84;100.00
55590;BME280;41452;42.780;23.116;2023-02-27T06:08:59;94137.50;;;3.77;100.00
55590;BME280;41452;42.780;23.116;2023-02-27T06:11:25;94151.75;;;3.88;100.00
55590;BME280;41452;42.780;23.116;2023-02-27T06:13:50;94155.31;;;3.87;100.00
55590;BME280;41452;42.780;23.116;2023-02-27T06:16:16;94158.72;;;3.81;100.00
55590;BME280;41452;42.780;23.116;2023-02-27T06:18:41;94143.91;;;3.75;100.00
55590;BME280;41452;42.780;23.116;2023-02-27T06:21:06;94160.09;;;3.84;100.00
55590;BME280;41452;42.780;23.116;2023-02-27T06:23:32;94090.59;;;3.44;100.00
55590;BME280;41452;42.780;23.116;2023-02-27T06:25:57;94162.56;;;3.92;100.00
55590;BME280;41452;42.780;23.116;2023-02-27T06:28:23;94159.91;;;3.85;100.00
55590;BME280;41452;42.780;23.116;2023-02-27T06:30:55;94171.56;;;3.89;100.00
55590;BME280;41452;42.780;23.116;2023-02-27T06:33:22;94177.97;;;3.93;100.00
55590;BME280;41452;42.780;23.116;2023-02-27T06:35:47;94179.94;;;3.91;100.00
55590;BME280;41452;42.780;23.116;2023-02-27T06:38:13;94185.09;;;3.85;100.00
55590;BME280;41452;42.780;23.116;2023-02-27T06:40:39;94164.47;;;3.76;100.00
55590;BME280;41452;42.780;23.116;2023-02-27T06:43:04;94185.47;;;3.81;100.00
55590;BME280;41452;42.780;23.116;2023-02-27T06:45:29;94187.69;;;3.85;100.00
55590;BME280;41452;42.780;23.116;2023-02-27T06:47:55;94198.28;;;3.83;100.00
55590;BME280;41452;42.780;23.116;2023-02-27T06:50:20;94117.91;;;3.33;100.00
55590;BME280;41452;42.780;23.116;2023-02-27T06:52:46;94192.66;;;3.79;100.00
55590;BME280;41452;42.780;23.116;2023-02-27T06:55:11;94192.09;;;3.84;100.00
55590;BME280;41452;42.780;23.116;2023-02-27T06:57:36;94193.13;;;3.90;100.00
55590;BME280;41452;42.780;23.116;2023-02-27T07:00:03;94196.34;;;3.92;100.00
55590;BME280;41452;42.780;23.116;2023-02-27T12:04:42;94282.34;;;9.10;86.66
55590;BME280;41452;42.780;23.116;2023-02-27T12:12:47;94274.41;;;8.87;85.01
55590;BME280;41452;42.780;23.116;2023-02-27T12:17:51;94265.34;;;8.71;86.15
55590;BME280;41452;42.780;23.116;2023-02-27T12:20:32;94264.88;;;8.74;87.22
55590;BME280;41452;42.780;23.116;2023-02-27T12:23:01;94260.03;;;8.78;88.54
55590;BME280;41452;42.780;23.116;2023-02-27T12:25:39;94254.59;;;8.91;89.29
55590;BME280;41452;42.780;23.116;2023-02-27T12:28:22;94265.78;;;8.98;89.03
55590;BME280;41452;42.780;23.116;2023-02-27T12:33:49;94255.72;;;8.83;88.50
55590;BME280;41452;42.780;23.116;2023-02-27T12:36:16;94264.09;;;8.73;87.54
55590;BME280;41452;42.780;23.116;2023-02-27T12:38:42;94265.97;;;8.66;86.45
55590;BME280;41452;42.780;23.116;2023-02-27T12:55:04;94285.31;;;7.59;87.84
55590;BME280;41452;42.780;23.116;2023-02-27T12:57:36;94279.00;;;7.42;87.63
55590;BME280;41452;42.780;23.116;2023-02-27T13:00:21;94276.78;;;7.39;88.03
55590;BME280;41452;42.780;23.116;2023-02-27T13:03:00;94282.88;;;7.33;88.68
55590;BME280;41452;42.780;23.116;2023-02-27T13:08:37;94290.38;;;7.22;90.23
55590;BME280;41452;42.780;23.116;2023-02-27T13:14:42;94283.47;;;7.35;88.73
55590;BME280;41452;42.780;23.116;2023-02-27T13:24:56;94276.38;;;7.10;90.10
55590;BME280;41452;42.780;23.116;2023-02-27T13:27:38;94299.66;;;7.18;89.14
55590;BME280;41452;42.780;23.116;2023-02-27T13:30:11;94283.00;;;7.13;89.91
55590;BME280;41452;42.780;23.116;2023-02-27T13:33:06;94291.53;;;6.95;90.53
55590;BME280;41452;42.780;23.116;2023-02-27T13:35:49;94304.25;;;6.84;91.22
55590;BME280;41452;42.780;23.116;2023-02-27T13:38:31;94306.88;;;6.71;91.48
55590;BME280;41452;42.780;23.116;2023-02-27T13:43:53;94308.59;;;6.32;92.85
55590;BME280;41452;42.780;23.116;2023-02-27T13:46:29;94304.44;;;6.18;93.69
55590;BME280;41452;42.780;23.116;2023-02-27T13:56:45;94315.50;;;6.13;96.97
55590;BME280;41452;42.780;23.116;2023-02-27T14:02:02;94289.63;;;5.98;100.00
55590;BME280;41452;42.780;23.116;2023-02-27T14:04:32;94309.47;;;5.99;100.00
55590;BME280;41452;42.780;23.116;2023-02-27T14:07:08;94331.94;;;6.00;100.00
55590;BME280;41452;42.780;23.116;2023-02-27T14:09:38;94348.97;;;6.03;100.00
55590;BME280;41452;42.780;23.116;2023-02-27T14:12:25;94323.91;;;5.82;100.00
55590;BME280;41452;42.780;23.116;2023-02-27T14:14:51;94312.06;;;5.72;100.00
55590;BME280;41452;42.780;23.116;2023-02-27T14:20:11;94298.03;;;5.60;100.00
55590;BME280;41452;42.780;23.116;2023-02-27T14:22:40;94314.28;;;5.76;100.00
55590;BME280;41452;42.780;23.116;2023-02-27T14:28:32;94289.22;;;5.55;100.00
55590;BME280;41452;42.780;23.116;2023-02-27T14:31:04;94327.31;;;5.76;100.00
55590;BME280;41452;42.780;23.116;2023-02-27T14:33:43;94316.69;;;5.70;100.00
55590;BME280;41452;42.780;23.116;2023-02-27T14:36:22;94266.56;;;5.42;100.00
55590;BME280;41452;42.780;23.116;2023-02-27T14:38:49;94325.91;;;5.60;100.00
55590;BME280;41452;42.780;23.116;2023-02-27T14:41:43;94342.53;;;5.59;100.00
55590;BME280;41452;42.780;23.116;2023-02-27T14:44:22;94288.38;;;5.27;100.00
55590;BME280;41452;42.780;23.116;2023-02-27T14:46:48;94337.50;;;5.57;100.00
55590;BME280;41452;42.780;23.116;2023-02-27T14:49:24;94350.34;;;5.59;100.00
55590;BME280;41452;42.780;23.116;2023-02-27T14:51:50;94303.25;;;5.40;100.00
55590;BME280;41452;42.780;23.116;2023-02-27T14:54:23;94324.47;;;5.57;100.00
55590;BME280;41452;42.780;23.116;2023-02-27T14:57:04;94332.13;;;5.65;100.00
55590;BME280;41452;42.780;23.116;2023-02-27T14:59:33;94340.72;;;5.66;100.00
55590;BME280;41452;42.780;23.116;2023-02-27T15:01:59;94345.94;;;5.72;100.00
55590;BME280;41452;42.780;23.116;2023-02-27T15:04:30;94355.97;;;5.82;100.00
55590;BME280;41452;42.780;23.116;2023-02-27T15:06:57;94372.00;;;5.66;100.00
55590;BME280;41452;42.780;23.116;2023-02-27T15:09:34;94375.41;;;5.80;100.00
55590;BME280;41452;42.780;23.116;2023-02-27T15:12:02;94376.63;;;5.84;100.00
55590;BME280;41452;42.780;23.116;2023-02-27T15:14:35;94389.44;;;5.85;100.00
55590;BME280;41452;42.780;23.116;2023-02-27T15:17:01;94400.72;;;5.99;100.00
55590;BME280;41452;42.780;23.116;2023-02-27T15:19:30;94396.91;;;6.02;100.00
55590;BME280;41452;42.780;23.116;2023-02-27T15:21:59;94408.53;;;5.99;100.00
55590;BME280;41452;42.780;23.116;2023-02-27T15:24:35;94419.31;;;5.89;100.00
55590;BME280;41452;42.780;23.116;2023-02-27T15:27:05;94423.34;;;5.92;100.00
55590;BME280;41452;42.780;23.116;2023-02-27T15:29:36;94435.97;;;5.88;100.00
55590;BME280;41452;42.780;23.116;2023-02-27T15:32:03;94429.34;;;5.72;100.00
55590;BME280;41452;42.780;23.116;2023-02-27T15:34:28;94442.78;;;5.83;100.00
55590;BME280;41452;42.780;23.116;2023-02-27T15:36:57;94400.28;;;5.76;100.00
55590;BME280;41452;42.780;23.116;2023-02-27T15:39:25;94381.44;;;5.67;100.00
55590;BME280;41452;42.780;23.116;2023-02-27T15:41:58;94399.84;;;5.59;100.00
55590;BME280;41452;42.780;23.116;2023-02-27T15:44:28;94402.25;;;5.60;100.00
55590;BME280;41452;42.780;23.116;2023-02-27T15:46:54;94340.66;;;5.19;100.00
55590;BME280;41452;42.780;23.116;2023-02-27T15:49:23;94380.97;;;5.50;100.00
55590;BME280;41452;42.780;23.116;2023-02-27T15:52:01;94408.59;;;5.38;100.00
55590;BME280;41452;42.780;23.116;2023-02-27T15:54:33;94411.19;;;5.31;100.00
55590;BME280;41452;42.780;23.116;2023-02-27T15:57:02;94414.16;;;5.21;100.00
55590;BME280;41452;42.780;23.116;2023-02-27T15:59:32;94423.34;;;5.10;100.00
55590;BME280;41452;42.780;23.116;2023-02-27T16:02:00;94444.31;;;5.02;100.00
55590;BME280;41452;42.780;23.116;2023-02-27T16:04:28;94391.25;;;4.62;100.00
55590;BME280;41452;42.780;23.116;2023-02-27T16:07:02;94459.31;;;5.00;100.00
55590;BME280;41452;42.780;23.116;2023-02-27T16:09:32;94462.13;;;4.99;100.00
55590;BME280;41452;42.780;23.116;2023-02-27T16:14:41;94461.31;;;4.98;100.00
55590;BME280;41452;42.780;23.116;2023-02-27T16:19:52;94422.38;;;4.76;100.00
55590;BME280;41452;42.780;23.116;2023-02-27T16:22:19;94444.03;;;4.84;100.00
55590;BME280;41452;42.780;23.116;2023-02-27T16:24:45;94457.56;;;4.72;100.00
55590;BME280;41452;42.780;23.116;2023-02-27T16:27:26;94429.06;;;4.57;100.00
55590;BME280;41452;42.780;23.116;2023-02-27T16:29:54;94455.19;;;4.78;100.00
55590;BME280;41452;42.780;23.116;2023-02-27T16:32:29;94472.03;;;4.82;100.00
55590;BME280;41452;42.780;23.116;2023-02-27T16:35:07;94480.78;;;4.74;100.00
55590;BME280;41452;42.780;23.116;2023-02-27T16:37:40;94481.75;;;4.66;100.00
55590;BME280;41452;42.780;23.116;2023-02-27T16:40:20;94447.81;;;4.46;100.00
55590;BME280;41452;42.780;23.116;2023-02-27T16:42:46;94479.50;;;4.63;100.00
55590;BME280;41452;42.780;23.116;2023-02-27T16:45:19;94476.13;;;4.63;100.00
55590;BME280;41452;42.780;23.116;2023-02-27T16:47:50;94486.34;;;4.64;100.00
55590;BME280;41452;42.780;23.116;2023-02-27T16:50:39;94508.97;;;4.64;100.00
55590;BME280;41452;42.780;23.116;2023-02-27T16:53:05;94521.28;;;4.55;100.00
55590;BME280;41452;42.780;23.116;2023-02-27T16:55:31;94517.00;;;4.47;100.00
55590;BME280;41452;42.780;23.116;2023-02-27T16:58:00;94507.94;;;4.36;100.00
55590;BME280;41452;42.780;23.116;2023-02-27T17:00:26;94534.25;;;4.48;100.00
55590;BME280;41452;42.780;23.116;2023-02-27T17:02:51;94532.25;;;4.50;100.00
55590;BME280;41452;42.780;23.116;2023-02-27T17:05:17;94535.09;;;4.55;100.00
55590;BME280;41452;42.780;23.116;2023-02-27T17:07:43;94530.56;;;4.64;100.00
55590;BME280;41452;42.780;23.116;2023-02-27T17:10:14;94530.41;;;4.72;100.00
55590;BME280;41452;42.780;23.116;2023-02-27T17:12:40;94533.66;;;4.81;100.00
55590;BME280;41452;42.780;23.116;2023-02-27T17:15:06;94541.34;;;4.89;100.00
55590;BME280;41452;42.780;23.116;2023-02-27T17:17:31;94493.25;;;4.79;100.00
55590;BME280;41452;42.780;23.116;2023-02-27T17:19:57;94500.13;;;4.93;100.00
55590;BME280;41452;42.780;23.116;2023-02-27T17:22:24;94532.31;;;5.20;100.00
55590;BME280;41452;42.780;23.116;2023-02-27T17:24:49;94515.72;;;5.21;100.00
55590;BME280;41452;42.780;23.116;2023-02-27T17:27:14;94502.13;;;5.32;100.00
55590;BME280;41452;42.780;23.116;2023-02-27T17:29:40;94493.72;;;5.30;100.00
55590;BME280;41452;42.780;23.116;2023-02-27T17:32:05;94511.44;;;5.55;100.00
55590;BME280;41452;42.780;23.116;2023-02-27T17:34:31;94509.84;;;5.54;100.00
55590;BME280;41452;42.780;23.116;2023-02-27T17:36:56;94514.88;;;5.62;100.00
55590;BME280;41452;42.780;23.116;2023-02-27T17:39:21;94501.41;;;5.52;100.00
55590;BME280;41452;42.780;23.116;2023-02-27T17:41:47;94520.47;;;5.59;100.00
55590;BME280;41452;42.780;23.116;2023-02-27T17:44:13;94509.69;;;5.62;100.00
55590;BME280;41452;42.780;23.116;2023-02-27T17:46:39;94503.47;;;5.63;100.00
55590;BME280;41452;42.780;23.116;2023-02-27T17:49:05;94502.44;;;5.58;100.00
55590;BME280;41452;42.780;23.116;2023-02-27T17:51:31;94524.94;;;5.65;100.00
55590;BME280;41452;42.780;23.116;2023-02-27T17:53:59;94537.34;;;5.63;100.00
55590;BME280;41452;42.780;23.116;2023-02-27T17:56:25;94506.59;;;5.39;100.00
55590;BME280;41452;42.780;23.116;2023-02-27T17:58:50;94530.66;;;5.54;100.00
55590;BME280;41452;42.780;23.116;2023-02-27T18:01:18;94530.66;;;5.54;100.00
55590;BME280;41452;42.780;23.116;2023-02-27T18:03:46;94507.53;;;5.31;100.00
55590;BME280;41452;42.780;23.116;2023-02-27T18:06:12;94534.41;;;5.38;100.00
55590;BME280;41452;42.780;23.116;2023-02-27T18:08:38;94537.84;;;5.39;100.00
55590;BME280;41452;42.780;23.116;2023-02-27T18:11:09;94539.56;;;5.25;100.00
55590;BME280;41452;42.780;23.116;2023-02-27T18:13:35;94539.00;;;5.29;100.00
55590;BME280;41452;42.780;23.116;2023-02-27T18:16:00;94549.38;;;5.23;100.00
55590;BME280;41452;42.780;23.116;2023-02-27T18:18:26;94549.19;;;5.24;100.00
55590;BME280;41452;42.780;23.116;2023-02-27T18:21:10;94537.09;;;5.17;100.00
55590;BME280;41452;42.780;23.116;2023-02-27T18:23:36;94553.84;;;5.36;100.00
55590;BME280;41452;42.780;23.116;2023-02-27T18:26:02;94528.41;;;5.38;100.00
55590;BME280;41452;42.780;23.116;2023-02-27T18:28:27;94541.78;;;5.28;100.00
55590;BME280;41452;42.780;23.116;2023-02-27T18:30:53;94540.47;;;5.10;100.00
55590;BME280;41452;42.780;23.116;2023-02-27T18:33:18;94506.59;;;5.04;100.00
55590;BME280;41452;42.780;23.116;2023-02-27T18:35:45;94540.31;;;5.19;100.00
55590;BME280;41452;42.780;23.116;2023-02-27T18:38:11;94568.78;;;5.20;100.00
55590;BME280;41452;42.780;23.116;2023-02-27T18:40:36;94576.00;;;5.25;100.00
55590;BME280;41452;42.780;23.116;2023-02-27T18:43:02;94529.38;;;4.95;100.00
55590;BME280;41452;42.780;23.116;2023-02-27T18:45:27;94551.50;;;5.12;100.00
55590;BME280;41452;42.780;23.116;2023-02-27T18:47:55;94555.88;;;5.05;100.00
55590;BME280;41452;42.780;23.116;2023-02-27T18:50:21;94574.81;;;5.21;100.00
55590;BME280;41452;42.780;23.116;2023-02-27T18:52:47;94577.81;;;5.24;100.00
55590;BME280;41452;42.780;23.116;2023-02-27T18:55:13;94581.19;;;5.18;100.00
55590;BME280;41452;42.780;23.116;2023-02-27T18:57:39;94584.00;;;5.23;100.00
55590;BME280;41452;42.780;23.116;2023-02-27T19:00:06;94588.25;;;5.31;100.00
55590;BME280;41452;42.780;23.116;2023-02-27T19:02:31;94599.44;;;5.25;100.00
55590;BME280;41452;42.780;23.116;2023-02-27T19:04:57;94615.44;;;5.22;100.00
55590;BME280;41452;42.780;23.116;2023-02-27T19:07:22;94632.69;;;5.23;100.00
55590;BME280;41452;42.780;23.116;2023-02-27T19:09:49;94633.25;;;5.18;100.00
55590;BME280;41452;42.780;23.116;2023-02-27T19:12:15;94609.88;;;4.97;100.00
55590;BME280;41452;42.780;23.116;2023-02-27T19:14:41;94630.81;;;5.10;100.00
55590;BME280;41452;42.780;23.116;2023-02-27T19:17:07;94644.88;;;5.22;100.00
55590;BME280;41452;42.780;23.116;2023-02-27T19:19:33;94623.59;;;5.12;100.00
55590;BME280;41452;42.780;23.116;2023-02-27T19:21:58;94632.09;;;5.27;100.00
55590;BME280;41452;42.780;23.116;2023-02-27T19:24:24;94607.38;;;5.10;100.00
55590;BME280;41452;42.780;23.116;2023-02-27T19:26:49;94588.28;;;5.03;100.00
55590;BME280;41452;42.780;23.116;2023-02-27T19:29:15;94564.38;;;4.64;100.00
55590;BME280;41452;42.780;23.116;2023-02-27T19:31:41;94588.97;;;4.83;100.00
55590;BME280;41452;42.780;23.116;2023-02-27T19:34:06;94647.59;;;5.07;100.00
55590;BME280;41452;42.780;23.116;2023-02-27T19:36:32;94647.81;;;4.84;100.00
55590;BME280;41452;42.780;23.116;2023-02-27T19:38:59;94644.16;;;4.79;100.00
55590;BME280;41452;42.780;23.116;2023-02-27T19:41:25;94589.41;;;4.44;100.00
55590;BME280;41452;42.780;23.116;2023-02-27T19:43:51;94644.59;;;4.82;100.00
55590;BME280;41452;42.780;23.116;2023-02-27T19:46:28;94642.22;;;4.87;100.00
55590;BME280;41452;42.780;23.116;2023-02-27T19:48:57;94643.78;;;4.82;100.00
55590;BME280;41452;42.780;23.116;2023-02-27T19:51:23;94638.81;;;4.65;100.00
55590;BME280;41452;42.780;23.116;2023-02-27T19:53:48;94650.25;;;4.49;100.00
55590;BME280;41452;42.780;23.116;2023-02-27T19:56:22;94606.91;;;4.13;100.00
55590;BME280;41452;42.780;23.116;2023-02-27T19:58:48;94638.50;;;4.32;100.00
55590;BME280;41452;42.780;23.116;2023-02-27T20:01:29;94612.31;;;3.97;100.00
55590;BME280;41452;42.780;23.116;2023-02-27T20:03:59;94612.94;;;3.99;100.00
55590;BME280;41452;42.780;23.116;2023-02-27T20:06:27;94624.69;;;3.95;100.00
55590;BME280;41452;42.780;23.116;2023-02-27T20:08:54;94651.22;;;4.05;100.00
55590;BME280;41452;42.780;23.116;2023-02-27T20:11:20;94667.44;;;4.07;100.00
55590;BME280;41452;42.780;23.116;2023-02-27T20:13:47;94669.28;;;4.13;100.00
55590;BME280;41452;42.780;23.116;2023-02-27T20:16:15;94669.91;;;4.15;100.00
55590;BME280;41452;42.780;23.116;2023-02-27T20:18:42;94643.22;;;4.07;100.00
55590;BME280;41452;42.780;23.116;2023-02-27T20:21:11;94672.53;;;4.37;100.00
55590;BME280;41452;42.780;23.116;2023-02-27T20:23:40;94668.88;;;4.46;100.00
55590;BME280;41452;42.780;23.116;2023-02-27T20:26:13;94674.31;;;4.51;100.00
55590;BME280;41452;42.780;23.116;2023-02-27T20:28:39;94681.13;;;4.52;100.00
55590;BME280;41452;42.780;23.116;2023-02-27T20:31:11;94684.78;;;4.58;100.00
55590;BME280;41452;42.780;23.116;2023-02-27T20:33:38;94689.97;;;4.58;100.00
55590;BME280;41452;42.780;23.116;2023-02-27T20:36:05;94693.66;;;4.64;100.00
55590;BME280;41452;42.780;23.116;2023-02-27T20:38:31;94693.00;;;4.62;100.00
55590;BME280;41452;42.780;23.116;2023-02-27T20:40:58;94684.34;;;4.54;100.00
55590;BME280;41452;42.780;23.116;2023-02-27T20:43:24;94698.53;;;4.52;100.00
55590;BME280;41452;42.780;23.116;2023-02-27T20:45:49;94698.53;;;4.37;100.00
55590;BME280;41452;42.780;23.116;2023-02-27T20:48:15;94738.69;;;4.49;100.00
55590;BME280;41452;42.780;23.116;2023-02-27T20:50:40;94724.19;;;4.40;100.00
55590;BME280;41452;42.780;23.116;2023-02-27T20:53:06;94729.91;;;4.50;100.00
55590;BME280;41452;42.780;23.116;2023-02-27T20:55:31;94721.94;;;4.52;100.00
55590;BME280;41452;42.780;23.116;2023-02-27T20:57:57;94702.28;;;4.49;100.00
55590;BME280;41452;42.780;23.116;2023-02-27T21:00:23;94728.44;;;4.63;100.00